sensor_id;sensor_type;location;lat;lon;timestamp;temperature;humidity
12115;DHT22;6121;49.810;6.418;2023-03-14T00:02:07;11.50;99.90
12115;DHT22;6121;49.810;6.418;2023-03-14T00:04:33;11.40;99.90
12115;DHT22;6121;49.810;6.418;2023-03-14T00:06:59;11.40;99.90
12115;DHT22;6121;49.810;6.418;2023-03-14T00:09:25;11.20;99.90
12115;DHT22;6121;49.810;6.418;2023-03-14T00:11:53;11.20;99.90
12115;DHT22;6121;49.810;6.418;2023-03-14T00:14:19;11.30;99.90
12115;DHT22;6121;49.810;6.418;2023-03-14T00:16:48;11.30;99.90
12115;DHT22;6121;49.810;6.418;2023-03-14T00:19:14;11.20;99.90
12115;DHT22;6121;49.810;6.418;2023-03-14T00:21:40;11.00;99.90
12115;DHT22;6121;49.810;6.418;2023-03-14T00:24:07;11.00;99.90
12115;DHT22;6121;49.810;6.418;2023-03-14T00:26:33;11.10;99.90
12115;DHT22;6121;49.810;6.418;2023-03-14T00:28:59;11.10;99.90
12115;DHT22;6121;49.810;6.418;2023-03-14T00:31:25;11.10;99.90
12115;DHT22;6121;49.810;6.418;2023-03-14T00:33:52;11.00;99.90
12115;DHT22;6121;49.810;6.418;2023-03-14T00:36:19;11.10;99.90
12115;DHT22;6121;49.810;6.418;2023-03-14T00:38:48;11.00;99.90
12115;DHT22;6121;49.810;6.418;2023-03-14T00:41:20;11.00;99.90
12115;DHT22;6121;49.810;6.418;2023-03-14T00:43:49;10.90;99.90
12115;DHT22;6121;49.810;6.418;2023-03-14T00:46:15;10.90;99.90
12115;DHT22;6121;49.810;6.418;2023-03-14T00:48:44;10.90;99.90
12115;DHT22;6121;49.810;6.418;2023-03-14T00:51:10;11.00;99.90
12115;DHT22;6121;49.810;6.418;2023-03-14T00:53:40;11.10;99.90
12115;DHT22;6121;49.810;6.418;2023-03-14T00:56:08;11.10;99.90
12115;DHT22;6121;49.810;6.418;2023-03-14T00:58:35;11.00;99.90
12115;DHT22;6121;49.810;6.418;2023-03-14T01:01:17;11.10;99.90
12115;DHT22;6121;49.810;6.418;2023-03-14T01:03:45;11.10;99.90
12115;DHT22;6121;49.810;6.418;2023-03-14T01:06:20;11.00;99.90
12115;DHT22;6121;49.810;6.418;2023-03-14T01:08:46;11.00;99.90
12115;DHT22;6121;49.810;6.418;2023-03-14T01:11:20;10.90;99.90
12115;DHT22;6121;49.810;6.418;2023-03-14T01:13:46;10.90;99.90
12115;DHT22;6121;49.810;6.418;2023-03-14T01:16:13;10.80;99.90
12115;DHT22;6121;49.810;6.418;2023-03-14T01:18:41;10.90;99.90
12115;DHT22;6121;49.810;6.418;2023-03-14T01:21:18;11.00;99.90
12115;DHT22;6121;49.810;6.418;2023-03-14T01:23:45;10.80;99.90
12115;DHT22;6121;49.810;6.418;2023-03-14T01:26:13;10.90;99.90
12115;DHT22;6121;49.810;6.418;2023-03-14T01:28:40;10.90;99.90
12115;DHT22;6121;49.810;6.418;2023-03-14T01:31:09;10.90;99.90
12115;DHT22;6121;49.810;6.418;2023-03-14T01:33:37;11.00;99.90
12115;DHT22;6121;49.810;6.418;2023-03-14T01:36:04;11.00;99.90
12115;DHT22;6121;49.810;6.418;2023-03-14T01:38:32;10.80;99.90
12115;DHT22;6121;49.810;6.418;2023-03-14T01:40:59;11.00;99.90
12115;DHT22;6121;49.810;6.418;2023-03-14T01:43:26;11.00;99.90
12115;DHT22;6121;49.810;6.418;2023-03-14T01:48:42;10.90;99.90
12115;DHT22;6121;49.810;6.418;2023-03-14T01:51:17;10.90;99.90
12115;DHT22;6121;49.810;6.418;2023-03-14T01:53:44;10.90;99.90
12115;DHT22;6121;49.810;6.418;2023-03-14T01:56:12;10.90;99.90
12115;DHT22;6121;49.810;6.418;2023-03-14T01:58:42;11.00;99.90
12115;DHT22;6121;49.810;6.418;2023-03-14T02:01:09;10.90;99.90
12115;DHT22;6121;49.810;6.418;2023-03-14T02:03:41;10.80;99.90
12115;DHT22;6121;49.810;6.418;2023-03-14T02:06:12;10.80;99.90
12115;DHT22;6121;49.810;6.418;2023-03-14T02:08:41;10.80;99.90
12115;DHT22;6121;49.810;6.418;2023-03-14T02:11:13;10.70;99.90
12115;DHT22;6121;49.810;6.418;2023-03-14T02:13:48;10.70;99.90
12115;DHT22;6121;49.810;6.418;2023-03-14T02:16:32;10.80;99.90
12115;DHT22;6121;49.810;6.418;2023-03-14T02:19:13;10.80;99.90
12115;DHT22;6121;49.810;6.418;2023-03-14T02:22:15;10.50;99.90
12115;DHT22;6121;49.810;6.418;2023-03-14T02:27:23;10.50;99.90
12115;DHT22;6121;49.810;6.418;2023-03-14T02:30:05;10.50;99.90
12115;DHT22;6121;49.810;6.418;2023-03-14T02:32:37;10.50;99.90
12115;DHT22;6121;49.810;6.418;2023-03-14T02:35:11;10.50;99.90
12115;DHT22;6121;49.810;6.418;2023-03-14T02:37:46;10.40;99.90
12115;DHT22;6121;49.810;6.418;2023-03-14T02:40:13;10.40;99.90
12115;DHT22;6121;49.810;6.418;2023-03-14T02:42:41;10.40;99.90
12115;DHT22;6121;49.810;6.418;2023-03-14T02:47:37;10.40;99.90
12115;DHT22;6121;49.810;6.418;2023-03-14T02:50:10;10.40;99.90
12115;DHT22;6121;49.810;6.418;2023-03-14T02:52:38;10.30;99.90
12115;DHT22;6121;49.810;6.418;2023-03-14T02:55:04;10.10;99.90
12115;DHT22;6121;49.810;6.418;2023-03-14T02:57:31;10.20;99.90
12115;DHT22;6121;49.810;6.418;2023-03-14T02:59:59;10.20;99.90
12115;DHT22;6121;49.810;6.418;2023-03-14T03:02:27;10.40;99.90
12115;DHT22;6121;49.810;6.418;2023-03-14T03:04:53;10.20;99.90
12115;DHT22;6121;49.810;6.418;2023-03-14T03:07:20;10.00;99.90
12115;DHT22;6121;49.810;6.418;2023-03-14T03:09:46;10.00;99.90
12115;DHT22;6121;49.810;6.418;2023-03-14T03:12:12;10.10;99.90
12115;DHT22;6121;49.810;6.418;2023-03-14T03:14:38;10.20;99.90
12115;DHT22;6121;49.810;6.418;2023-03-14T03:17:05;9.90;99.90
12115;DHT22;6121;49.810;6.418;2023-03-14T03:19:32;10.00;99.90
12115;DHT22;6121;49.810;6.418;2023-03-14T03:21:58;10.00;99.90
12115;DHT22;6121;49.810;6.418;2023-03-14T03:24:25;10.10;99.90
12115;DHT22;6121;49.810;6.418;2023-03-14T03:26:52;9.90;99.90
12115;DHT22;6121;49.810;6.418;2023-03-14T03:29:18;10.00;99.90
12115;DHT22;6121;49.810;6.418;2023-03-14T03:31:45;10.00;99.90
12115;DHT22;6121;49.810;6.418;2023-03-14T03:34:12;10.00;99.90
12115;DHT22;6121;49.810;6.418;2023-03-14T03:36:39;10.00;99.90
12115;DHT22;6121;49.810;6.418;2023-03-14T03:39:05;10.00;99.90
12115;DHT22;6121;49.810;6.418;2023-03-14T03:41:31;9.90;99.90
12115;DHT22;6121;49.810;6.418;2023-03-14T03:43:58;9.90;99.90
12115;DHT22;6121;49.810;6.418;2023-03-14T03:46:24;10.00;99.90
12115;DHT22;6121;49.810;6.418;2023-03-14T03:48:55;10.00;99.90
12115;DHT22;6121;49.810;6.418;2023-03-14T03:51:22;9.90;99.90
12115;DHT22;6121;49.810;6.418;2023-03-14T03:53:48;9.80;99.90
12115;DHT22;6121;49.810;6.418;2023-03-14T03:56:18;10.00;99.90
12115;DHT22;6121;49.810;6.418;2023-03-14T03:58:44;9.90;99.90
12115;DHT22;6121;49.810;6.418;2023-03-14T04:01:10;9.90;99.90
12115;DHT22;6121;49.810;6.418;2023-03-14T04:03:37;9.90;99.90
12115;DHT22;6121;49.810;6.418;2023-03-14T04:06:11;10.00;99.90
12115;DHT22;6121;49.810;6.418;2023-03-14T04:08:40;9.80;99.90
12115;DHT22;6121;49.810;6.418;2023-03-14T04:11:15;9.70;99.90
12115;DHT22;6121;49.810;6.418;2023-03-14T04:13:53;9.70;99.90
12115;DHT22;6121;49.810;6.418;2023-03-14T04:16:24;9.70;99.90
12115;DHT22;6121;49.810;6.418;2023-03-14T04:18:54;9.70;99.90
12115;DHT22;6121;49.810;6.418;2023-03-14T04:21:22;9.70;99.90
12115;DHT22;6121;49.810;6.418;2023-03-14T04:23:52;9.70;99.90
12115;DHT22;6121;49.810;6.418;2023-03-14T04:26:18;9.70;99.90
12115;DHT22;6121;49.810;6.418;2023-03-14T04:28:44;9.60;99.90
12115;DHT22;6121;49.810;6.418;2023-03-14T04:31:13;9.70;99.90
12115;DHT22;6121;49.810;6.418;2023-03-14T04:33:39;9.50;99.90
12115;DHT22;6121;49.810;6.418;2023-03-14T04:36:07;9.70;99.90
12115;DHT22;6121;49.810;6.418;2023-03-14T04:38:34;9.60;99.90
12115;DHT22;6121;49.810;6.418;2023-03-14T04:41:01;9.70;99.90
12115;DHT22;6121;49.810;6.418;2023-03-14T04:43:30;9.70;99.90
12115;DHT22;6121;49.810;6.418;2023-03-14T04:46:06;9.50;99.90
12115;DHT22;6121;49.810;6.418;2023-03-14T04:48:32;9.60;99.90
12115;DHT22;6121;49.810;6.418;2023-03-14T04:50:59;9.60;99.90
12115;DHT22;6121;49.810;6.418;2023-03-14T04:53:28;9.50;99.90
12115;DHT22;6121;49.810;6.418;2023-03-14T04:55:56;9.50;99.90
12115;DHT22;6121;49.810;6.418;2023-03-14T04:58:24;9.50;99.90
12115;DHT22;6121;49.810;6.418;2023-03-14T05:00:52;9.50;99.90
12115;DHT22;6121;49.810;6.418;2023-03-14T05:03:35;9.50;99.90
12115;DHT22;6121;49.810;6.418;2023-03-14T05:06:17;9.50;99.90
12115;DHT22;6121;49.810;6.418;2023-03-14T05:09:01;9.60;99.90
12115;DHT22;6121;49.810;6.418;2023-03-14T05:11:46;9.60;99.90
12115;DHT22;6121;49.810;6.418;2023-03-14T05:14:32;9.60;99.90
12115;DHT22;6121;49.810;6.418;2023-03-14T05:17:18;9.60;99.90
12115;DHT22;6121;49.810;6.418;2023-03-14T05:20:05;9.70;99.90
12115;DHT22;6121;49.810;6.418;2023-03-14T05:22:52;9.50;99.90
12115;DHT22;6121;49.810;6.418;2023-03-14T05:25:30;9.60;99.90
12115;DHT22;6121;49.810;6.418;2023-03-14T05:28:19;9.60;99.90
12115;DHT22;6121;49.810;6.418;2023-03-14T05:30:55;9.50;99.90
12115;DHT22;6121;49.810;6.418;2023-03-14T05:33:30;9.50;99.90
12115;DHT22;6121;49.810;6.418;2023-03-14T05:36:11;9.40;99.90
12115;DHT22;6121;49.810;6.418;2023-03-14T05:38:57;9.40;99.90
12115;DHT22;6121;49.810;6.418;2023-03-14T05:41:41;9.30;99.90
12115;DHT22;6121;49.810;6.418;2023-03-14T05:44:24;9.40;99.90
12115;DHT22;6121;49.810;6.418;2023-03-14T05:47:12;9.60;99.90
12115;DHT22;6121;49.810;6.418;2023-03-14T05:49:41;9.50;99.90
12115;DHT22;6121;49.810;6.418;2023-03-14T05:52:13;9.50;99.90
12115;DHT22;6121;49.810;6.418;2023-03-14T05:54:51;9.40;99.90
12115;DHT22;6121;49.810;6.418;2023-03-14T05:57:29;9.40;99.90
12115;DHT22;6121;49.810;6.418;2023-03-14T06:00:19;9.50;99.90
12115;DHT22;6121;49.810;6.418;2023-03-14T06:02:55;9.60;99.90
12115;DHT22;6121;49.810;6.418;2023-03-14T06:05:27;9.60;99.90
12115;DHT22;6121;49.810;6.418;2023-03-14T06:07:59;9.40;99.90
12115;DHT22;6121;49.810;6.418;2023-03-14T06:10:26;9.40;99.90
12115;DHT22;6121;49.810;6.418;2023-03-14T06:12:52;9.50;99.90
12115;DHT22;6121;49.810;6.418;2023-03-14T06:15:19;9.40;99.90
12115;DHT22;6121;49.810;6.418;2023-03-14T06:17:48;9.50;99.90
12115;DHT22;6121;49.810;6.418;2023-03-14T06:20:16;9.40;99.90
12115;DHT22;6121;49.810;6.418;2023-03-14T06:22:42;9.40;99.90
12115;DHT22;6121;49.810;6.418;2023-03-14T06:25:10;9.50;99.90
12115;DHT22;6121;49.810;6.418;2023-03-14T06:27:36;9.60;99.90
12115;DHT22;6121;49.810;6.418;2023-03-14T06:30:02;9.70;99.90
12115;DHT22;6121;49.810;6.418;2023-03-14T06:32:30;9.70;99.90
12115;DHT22;6121;49.810;6.418;2023-03-14T06:35:00;9.60;99.90
12115;DHT22;6121;49.810;6.418;2023-03-14T06:37:28;9.60;99.90
12115;DHT22;6121;49.810;6.418;2023-03-14T06:39:55;9.60;99.90
12115;DHT22;6121;49.810;6.418;2023-03-14T06:42:41;9.70;99.90
12115;DHT22;6121;49.810;6.418;2023-03-14T06:45:08;9.60;99.90
12115;DHT22;6121;49.810;6.418;2023-03-14T06:47:35;9.60;99.90
12115;DHT22;6121;49.810;6.418;2023-03-14T06:50:02;9.50;99.90
12115;DHT22;6121;49.810;6.418;2023-03-14T06:52:30;9.50;99.90
12115;DHT22;6121;49.810;6.418;2023-03-14T06:54:56;9.70;99.90
12115;DHT22;6121;49.810;6.418;2023-03-14T06:57:23;9.70;99.90
12115;DHT22;6121;49.810;6.418;2023-03-14T06:59:48;9.80;99.90
12115;DHT22;6121;49.810;6.418;2023-03-14T07:02:14;9.90;99.90
12115;DHT22;6121;49.810;6.418;2023-03-14T07:04:42;10.00;99.90
12115;DHT22;6121;49.810;6.418;2023-03-14T07:07:09;9.90;99.90
12115;DHT22;6121;49.810;6.418;2023-03-14T07:09:35;9.90;99.90
12115;DHT22;6121;49.810;6.418;2023-03-14T07:12:02;9.90;99.90
12115;DHT22;6121;49.810;6.418;2023-03-14T07:14:30;9.80;99.90
12115;DHT22;6121;49.810;6.418;2023-03-14T07:16:56;9.90;99.90
12115;DHT22;6121;49.810;6.418;2023-03-14T07:19:22;10.00;99.90
12115;DHT22;6121;49.810;6.418;2023-03-14T07:21:48;10.10;99.90
12115;DHT22;6121;49.810;6.418;2023-03-14T07:24:16;10.10;99.90
12115;DHT22;6121;49.810;6.418;2023-03-14T07:26:43;10.10;99.90
12115;DHT22;6121;49.810;6.418;2023-03-14T07:29:09;10.10;99.90
12115;DHT22;6121;49.810;6.418;2023-03-14T07:31:36;10.10;99.90
12115;DHT22;6121;49.810;6.418;2023-03-14T07:34:03;10.10;99.90
12115;DHT22;6121;49.810;6.418;2023-03-14T07:36:33;10.10;99.90
12115;DHT22;6121;49.810;6.418;2023-03-14T07:38:59;10.20;99.90
12115;DHT22;6121;49.810;6.418;2023-03-14T07:41:55;10.40;99.90
12115;DHT22;6121;49.810;6.418;2023-03-14T07:44:39;10.50;99.90
12115;DHT22;6121;49.810;6.418;2023-03-14T07:47:05;10.40;99.90
12115;DHT22;6121;49.810;6.418;2023-03-14T07:49:32;10.40;99.90
12115;DHT22;6121;49.810;6.418;2023-03-14T07:51:58;10.40;99.90
12115;DHT22;6121;49.810;6.418;2023-03-14T07:54:24;10.50;99.90
12115;DHT22;6121;49.810;6.418;2023-03-14T07:56:51;10.50;99.90
12115;DHT22;6121;49.810;6.418;2023-03-14T07:59:18;10.50;99.90
12115;DHT22;6121;49.810;6.418;2023-03-14T08:01:44;10.70;99.90
12115;DHT22;6121;49.810;6.418;2023-03-14T08:04:10;10.80;99.90
12115;DHT22;6121;49.810;6.418;2023-03-14T08:06:36;10.80;99.90
12115;DHT22;6121;49.810;6.418;2023-03-14T08:09:03;11.00;99.90
12115;DHT22;6121;49.810;6.418;2023-03-14T08:11:28;11.10;99.90
12115;DHT22;6121;49.810;6.418;2023-03-14T08:13:54;11.00;99.90
12115;DHT22;6121;49.810;6.418;2023-03-14T08:16:21;10.80;99.90
12115;DHT22;6121;49.810;6.418;2023-03-14T08:18:47;10.90;99.90
12115;DHT22;6121;49.810;6.418;2023-03-14T08:21:13;10.80;99.90
12115;DHT22;6121;49.810;6.418;2023-03-14T08:23:39;10.90;99.90
12115;DHT22;6121;49.810;6.418;2023-03-14T08:26:06;10.90;99.90
12115;DHT22;6121;49.810;6.418;2023-03-14T08:28:32;11.00;99.90
12115;DHT22;6121;49.810;6.418;2023-03-14T08:30:59;11.00;99.90
12115;DHT22;6121;49.810;6.418;2023-03-14T08:33:28;11.20;99.90
12115;DHT22;6121;49.810;6.418;2023-03-14T08:35:55;11.10;99.90
12115;DHT22;6121;49.810;6.418;2023-03-14T08:38:21;11.00;99.90
12115;DHT22;6121;49.810;6.418;2023-03-14T08:40:47;11.10;99.90
12115;DHT22;6121;49.810;6.418;2023-03-14T08:43:13;11.40;99.90
12115;DHT22;6121;49.810;6.418;2023-03-14T08:45:38;11.10;99.90
12115;DHT22;6121;49.810;6.418;2023-03-14T08:48:04;11.00;99.90
12115;DHT22;6121;49.810;6.418;2023-03-14T08:50:30;10.90;99.90
12115;DHT22;6121;49.810;6.418;2023-03-14T08:52:59;10.90;99.90
12115;DHT22;6121;49.810;6.418;2023-03-14T08:55:26;11.10;99.90
12115;DHT22;6121;49.810;6.418;2023-03-14T08:57:55;11.10;99.90
12115;DHT22;6121;49.810;6.418;2023-03-14T09:00:21;11.50;99.90
12115;DHT22;6121;49.810;6.418;2023-03-14T09:02:47;11.60;99.90
12115;DHT22;6121;49.810;6.418;2023-03-14T09:05:14;11.70;99.90
12115;DHT22;6121;49.810;6.418;2023-03-14T09:07:40;11.90;99.90
12115;DHT22;6121;49.810;6.418;2023-03-14T09:10:08;12.00;99.90
12115;DHT22;6121;49.810;6.418;2023-03-14T09:12:35;12.10;99.90
12115;DHT22;6121;49.810;6.418;2023-03-14T09:15:00;12.40;99.90
12115;DHT22;6121;49.810;6.418;2023-03-14T09:17:26;12.70;99.90
12115;DHT22;6121;49.810;6.418;2023-03-14T09:19:52;12.80;99.90
12115;DHT22;6121;49.810;6.418;2023-03-14T09:22:18;12.60;99.90
12115;DHT22;6121;49.810;6.418;2023-03-14T09:24:44;12.80;99.90
12115;DHT22;6121;49.810;6.418;2023-03-14T09:27:10;12.90;99.90
12115;DHT22;6121;49.810;6.418;2023-03-14T09:29:35;12.90;99.90
12115;DHT22;6121;49.810;6.418;2023-03-14T09:32:07;13.10;99.90
12115;DHT22;6121;49.810;6.418;2023-03-14T09:34:34;12.60;99.90
12115;DHT22;6121;49.810;6.418;2023-03-14T09:37:00;12.30;99.90
12115;DHT22;6121;49.810;6.418;2023-03-14T09:39:25;12.40;99.90
12115;DHT22;6121;49.810;6.418;2023-03-14T09:41:52;12.30;99.90
12115;DHT22;6121;49.810;6.418;2023-03-14T09:44:26;12.40;99.90
12115;DHT22;6121;49.810;6.418;2023-03-14T09:46:55;12.50;99.90
12115;DHT22;6121;49.810;6.418;2023-03-14T09:49:34;12.90;99.90
12115;DHT22;6121;49.810;6.418;2023-03-14T09:52:14;13.10;99.90
12115;DHT22;6121;49.810;6.418;2023-03-14T09:57:56;13.00;99.90
12115;DHT22;6121;49.810;6.418;2023-03-14T10:00:26;13.20;99.90
12115;DHT22;6121;49.810;6.418;2023-03-14T10:02:56;14.30;99.90
12115;DHT22;6121;49.810;6.418;2023-03-14T10:05:24;13.90;99.90
12115;DHT22;6121;49.810;6.418;2023-03-14T10:07:50;14.30;99.90
12115;DHT22;6121;49.810;6.418;2023-03-14T10:10:22;15.80;99.90
12115;DHT22;6121;49.810;6.418;2023-03-14T10:12:56;14.90;99.90
12115;DHT22;6121;49.810;6.418;2023-03-14T10:15:33;13.80;99.90
12115;DHT22;6121;49.810;6.418;2023-03-14T10:18:00;12.80;99.90
12115;DHT22;6121;49.810;6.418;2023-03-14T10:20:34;11.70;99.90
12115;DHT22;6121;49.810;6.418;2023-03-14T10:23:04;11.40;99.90
12115;DHT22;6121;49.810;6.418;2023-03-14T10:25:33;11.10;99.90
12115;DHT22;6121;49.810;6.418;2023-03-14T10:27:59;10.90;99.90
12115;DHT22;6121;49.810;6.418;2023-03-14T10:30:45;11.10;99.90
12115;DHT22;6121;49.810;6.418;2023-03-14T10:33:20;10.90;99.90
12115;DHT22;6121;49.810;6.418;2023-03-14T10:38:32;11.10;99.90
12115;DHT22;6121;49.810;6.418;2023-03-14T10:40:59;14.60;99.90
12115;DHT22;6121;49.810;6.418;2023-03-14T10:43:33;17.50;99.90
12115;DHT22;6121;49.810;6.418;2023-03-14T10:46:10;19.00;99.90
12115;DHT22;6121;49.810;6.418;2023-03-14T10:48:57;20.90;99.90
12115;DHT22;6121;49.810;6.418;2023-03-14T10:51:29;18.50;98.20
12115;DHT22;6121;49.810;6.418;2023-03-14T10:54:01;16.90;99.60
12115;DHT22;6121;49.810;6.418;2023-03-14T10:56:34;14.90;99.90
12115;DHT22;6121;49.810;6.418;2023-03-14T10:58:59;13.20;99.90
12115;DHT22;6121;49.810;6.418;2023-03-14T11:04:43;12.60;99.90
12115;DHT22;6121;49.810;6.418;2023-03-14T11:07:35;11.70;99.90
12115;DHT22;6121;49.810;6.418;2023-03-14T11:10:24;11.40;99.90
12115;DHT22;6121;49.810;6.418;2023-03-14T11:13:14;11.00;99.90
12115;DHT22;6121;49.810;6.418;2023-03-14T11:16:06;10.20;99.90
12115;DHT22;6121;49.810;6.418;2023-03-14T11:19:15;10.50;99.90
12115;DHT22;6121;49.810;6.418;2023-03-14T11:27:55;12.50;99.90
12115;DHT22;6121;49.810;6.418;2023-03-14T11:33:15;10.90;99.90
12115;DHT22;6121;49.810;6.418;2023-03-14T11:36:03;10.80;99.90
12115;DHT22;6121;49.810;6.418;2023-03-14T11:38:43;10.50;99.90
12115;DHT22;6121;49.810;6.418;2023-03-14T11:41:20;13.80;99.90
12115;DHT22;6121;49.810;6.418;2023-03-14T11:43:49;16.40;99.90
12115;DHT22;6121;49.810;6.418;2023-03-14T11:46:39;17.70;99.90
12115;DHT22;6121;49.810;6.418;2023-03-14T11:51:56;14.80;99.90
12115;DHT22;6121;49.810;6.418;2023-03-14T11:57:23;14.00;99.90
12115;DHT22;6121;49.810;6.418;2023-03-14T12:08:56;23.70;88.80
12115;DHT22;6121;49.810;6.418;2023-03-14T12:14:18;24.80;76.10
12115;DHT22;6121;49.810;6.418;2023-03-14T12:16:47;26.00;70.00
12115;DHT22;6121;49.810;6.418;2023-03-14T12:21:50;24.80;67.30
12115;DHT22;6121;49.810;6.418;2023-03-14T12:24:26;24.30;62.90
12115;DHT22;6121;49.810;6.418;2023-03-14T12:26:58;27.60;61.70
12115;DHT22;6121;49.810;6.418;2023-03-14T12:29:25;27.20;55.60
12115;DHT22;6121;49.810;6.418;2023-03-14T12:34:31;18.20;64.90
12115;DHT22;6121;49.810;6.418;2023-03-14T12:37:19;16.50;67.60
12115;DHT22;6121;49.810;6.418;2023-03-14T12:43:00;15.20;70.10
12115;DHT22;6121;49.810;6.418;2023-03-14T12:45:34;16.80;70.20
12115;DHT22;6121;49.810;6.418;2023-03-14T12:50:40;16.30;71.40
12115;DHT22;6121;49.810;6.418;2023-03-14T12:53:54;15.80;72.90
12115;DHT22;6121;49.810;6.418;2023-03-14T12:56:34;15.40;73.30
12115;DHT22;6121;49.810;6.418;2023-03-14T12:59:37;15.10;75.00
12115;DHT22;6121;49.810;6.418;2023-03-14T13:04:44;14.70;74.90
12115;DHT22;6121;49.810;6.418;2023-03-14T13:07:35;14.40;76.50
12115;DHT22;6121;49.810;6.418;2023-03-14T13:13:01;13.20;76.50
12115;DHT22;6121;49.810;6.418;2023-03-14T13:15:34;13.00;79.10
12115;DHT22;6121;49.810;6.418;2023-03-14T13:18:17;13.00;80.30
12115;DHT22;6121;49.810;6.418;2023-03-14T13:21:13;12.50;80.20
12115;DHT22;6121;49.810;6.418;2023-03-14T13:23:41;12.70;80.60
12115;DHT22;6121;49.810;6.418;2023-03-14T13:26:19;12.80;79.10
12115;DHT22;6121;49.810;6.418;2023-03-14T13:28:45;12.40;80.60
12115;DHT22;6121;49.810;6.418;2023-03-14T13:31:24;12.10;80.40
12115;DHT22;6121;49.810;6.418;2023-03-14T13:34:16;11.60;81.70
12115;DHT22;6121;49.810;6.418;2023-03-14T13:36:43;11.80;82.50
12115;DHT22;6121;49.810;6.418;2023-03-14T13:39:20;11.80;81.30
12115;DHT22;6121;49.810;6.418;2023-03-14T13:41:48;12.30;82.20
12115;DHT22;6121;49.810;6.418;2023-03-14T13:44:17;12.60;80.00
12115;DHT22;6121;49.810;6.418;2023-03-14T13:46:45;12.10;81.40
12115;DHT22;6121;49.810;6.418;2023-03-14T13:49:23;12.20;82.00
12115;DHT22;6121;49.810;6.418;2023-03-14T13:51:49;11.90;81.60
12115;DHT22;6121;49.810;6.418;2023-03-14T13:54:18;12.10;80.20
12115;DHT22;6121;49.810;6.418;2023-03-14T13:56:46;11.90;80.90
12115;DHT22;6121;49.810;6.418;2023-03-14T13:59:25;11.90;79.90
12115;DHT22;6121;49.810;6.418;2023-03-14T14:01:53;11.80;79.40
12115;DHT22;6121;49.810;6.418;2023-03-14T14:04:22;12.10;80.60
12115;DHT22;6121;49.810;6.418;2023-03-14T14:06:57;12.10;80.40
12115;DHT22;6121;49.810;6.418;2023-03-14T14:09:50;12.20;79.60
12115;DHT22;6121;49.810;6.418;2023-03-14T14:12:40;12.40;79.60
12115;DHT22;6121;49.810;6.418;2023-03-14T14:15:14;12.30;80.30
12115;DHT22;6121;49.810;6.418;2023-03-14T14:20:31;12.10;81.40
12115;DHT22;6121;49.810;6.418;2023-03-14T14:23:02;12.20;80.40
12115;DHT22;6121;49.810;6.418;2023-03-14T14:25:29;12.30;78.90
12115;DHT22;6121;49.810;6.418;2023-03-14T14:27:55;12.40;78.10
12115;DHT22;6121;49.810;6.418;2023-03-14T14:30:24;12.00;78.20
12115;DHT22;6121;49.810;6.418;2023-03-14T14:32:51;12.10;76.80
12115;DHT22;6121;49.810;6.418;2023-03-14T14:35:26;12.10;78.30
12115;DHT22;6121;49.810;6.418;2023-03-14T14:37:52;12.20;79.00
12115;DHT22;6121;49.810;6.418;2023-03-14T14:40:24;12.10;77.50
12115;DHT22;6121;49.810;6.418;2023-03-14T14:42:52;12.00;76.90
12115;DHT22;6121;49.810;6.418;2023-03-14T14:45:27;11.90;78.20
12115;DHT22;6121;49.810;6.418;2023-03-14T14:53:02;12.00;78.90
12115;DHT22;6121;49.810;6.418;2023-03-14T14:55:33;11.90;76.60
12115;DHT22;6121;49.810;6.418;2023-03-14T14:58:22;11.90;76.80
12115;DHT22;6121;49.810;6.418;2023-03-14T15:01:15;11.70;77.50
12115;DHT22;6121;49.810;6.418;2023-03-14T15:03:43;11.70;77.00
12115;DHT22;6121;49.810;6.418;2023-03-14T15:06:12;11.70;78.30
12115;DHT22;6121;49.810;6.418;2023-03-14T15:08:38;11.70;78.50
12115;DHT22;6121;49.810;6.418;2023-03-14T15:11:04;11.80;76.90
12115;DHT22;6121;49.810;6.418;2023-03-14T15:13:30;11.70;76.50
12115;DHT22;6121;49.810;6.418;2023-03-14T15:15:56;11.50;76.60
12115;DHT22;6121;49.810;6.418;2023-03-14T15:18:24;11.40;77.70
12115;DHT22;6121;49.810;6.418;2023-03-14T15:20:51;11.20;77.70
12115;DHT22;6121;49.810;6.418;2023-03-14T15:23:19;11.20;79.20
12115;DHT22;6121;49.810;6.418;2023-03-14T15:25:45;11.00;78.20
12115;DHT22;6121;49.810;6.418;2023-03-14T15:28:18;11.00;79.70
12115;DHT22;6121;49.810;6.418;2023-03-14T15:30:47;10.70;78.40
12115;DHT22;6121;49.810;6.418;2023-03-14T15:33:13;10.70;79.30
12115;DHT22;6121;49.810;6.418;2023-03-14T15:35:39;10.80;78.80
12115;DHT22;6121;49.810;6.418;2023-03-14T15:38:16;10.70;80.10
12115;DHT22;6121;49.810;6.418;2023-03-14T15:40:42;10.60;81.90
12115;DHT22;6121;49.810;6.418;2023-03-14T15:43:08;10.60;82.90
12115;DHT22;6121;49.810;6.418;2023-03-14T15:45:35;10.30;83.70
12115;DHT22;6121;49.810;6.418;2023-03-14T15:48:01;10.30;84.40
12115;DHT22;6121;49.810;6.418;2023-03-14T15:50:26;10.20;85.00
12115;DHT22;6121;49.810;6.418;2023-03-14T15:52:53;10.20;86.10
12115;DHT22;6121;49.810;6.418;2023-03-14T15:55:19;9.90;86.40
12115;DHT22;6121;49.810;6.418;2023-03-14T15:57:45;9.50;87.20
12115;DHT22;6121;49.810;6.418;2023-03-14T16:00:13;9.40;88.00
12115;DHT22;6121;49.810;6.418;2023-03-14T16:02:40;9.20;88.50
12115;DHT22;6121;49.810;6.418;2023-03-14T16:05:10;9.30;88.70
12115;DHT22;6121;49.810;6.418;2023-03-14T16:07:36;9.20;89.40
12115;DHT22;6121;49.810;6.418;2023-03-14T16:10:03;9.10;90.20
12115;DHT22;6121;49.810;6.418;2023-03-14T16:12:29;9.10;90.60
12115;DHT22;6121;49.810;6.418;2023-03-14T16:14:54;9.20;91.10
12115;DHT22;6121;49.810;6.418;2023-03-14T16:17:20;8.80;92.80
12115;DHT22;6121;49.810;6.418;2023-03-14T16:19:46;8.60;94.10
12115;DHT22;6121;49.810;6.418;2023-03-14T16:22:12;8.50;94.90
12115;DHT22;6121;49.810;6.418;2023-03-14T16:24:38;8.90;94.80
12115;DHT22;6121;49.810;6.418;2023-03-14T16:27:04;9.00;94.40
12115;DHT22;6121;49.810;6.418;2023-03-14T16:29:32;9.00;95.10
12115;DHT22;6121;49.810;6.418;2023-03-14T16:31:58;8.90;95.10
12115;DHT22;6121;49.810;6.418;2023-03-14T16:34:24;9.00;95.30
12115;DHT22;6121;49.810;6.418;2023-03-14T16:36:50;9.10;95.20
12115;DHT22;6121;49.810;6.418;2023-03-14T16:39:19;9.10;95.50
12115;DHT22;6121;49.810;6.418;2023-03-14T16:41:45;9.10;95.20
12115;DHT22;6121;49.810;6.418;2023-03-14T16:44:11;9.10;95.30
12115;DHT22;6121;49.810;6.418;2023-03-14T16:46:36;9.10;95.30
12115;DHT22;6121;49.810;6.418;2023-03-14T16:49:03;8.90;95.70
12115;DHT22;6121;49.810;6.418;2023-03-14T16:51:29;8.80;96.20
12115;DHT22;6121;49.810;6.418;2023-03-14T16:53:55;8.50;96.50
12115;DHT22;6121;49.810;6.418;2023-03-14T16:56:22;8.40;96.70
12115;DHT22;6121;49.810;6.418;2023-03-14T16:58:49;8.50;97.00
12115;DHT22;6121;49.810;6.418;2023-03-14T17:01:16;8.30;97.20
12115;DHT22;6121;49.810;6.418;2023-03-14T17:03:46;8.30;98.60
12115;DHT22;6121;49.810;6.418;2023-03-14T17:06:18;8.60;99.30
12115;DHT22;6121;49.810;6.418;2023-03-14T17:08:44;8.30;99.90
12115;DHT22;6121;49.810;6.418;2023-03-14T17:11:10;8.10;99.90
12115;DHT22;6121;49.810;6.418;2023-03-14T17:13:37;7.50;99.90
12115;DHT22;6121;49.810;6.418;2023-03-14T17:16:03;7.70;99.90
12115;DHT22;6121;49.810;6.418;2023-03-14T17:18:30;7.80;99.90
12115;DHT22;6121;49.810;6.418;2023-03-14T17:20:58;7.50;99.90